Bessie Ellen — ZITL7 — position and weather

sailwx.info

Track history (hours):
 
Tides and Currents Weather Stations Pressure Air Temp Water Temp Dewpoint Dewpoint Depression Visibility Wind Speed Wind Dir Waves Ship Positions

Bessie Ellen

Ship's website: http://bessie-ellen.com/blog/

Last reported at 2018-Oct-29 20:42 UTC. Time now 2018-Dec-18 10:53 UTC.
Position N 48°40' W 005°08'.
Warning: this ship's position is 49 days out of date.

Length 28 m.

Type: Sailing vessel. MMSI: 235005952.

Date/timePositionNaut miles runAvg speedWind from/ knotsBaromVisibWave heightAir tempDewpointWater temp
2018-Oct-29 20:42N 48°40' W 005°08'2 5.9
2018-Oct-29 20:21N 48°38' W 005°09'2 6.1
2018-Oct-29 19:58N 48°35' W 005°09'13 6.6
2018-Oct-29 17:58N 48°22' W 005°08'7 6.9
2018-Oct-29 16:58N 48°17' W 005°02'7 6.6
2018-Oct-29 15:58N 48°12' W 004°56'6 6.0
2018-Oct-29 14:58N 48°06' W 004°52'7 6.7
2018-Oct-29 13:58N 48°01' W 004°46'  
2018-Oct-20 23:17N 42°07' W 009°04'57 5.2
2018-Oct-20 12:16N 41°12' W 008°45'1 6.6
2018-Oct-20 12:03N 41°11' W 008°44'0 7.1
2018-Oct-20 12:00N 41°10' W 008°44'  
Track history (hours):
 
Tides and Currents Weather Stations Pressure Air Temp Water Temp Dewpoint Dewpoint Depression Visibility Wind Speed Wind Dir Waves Ship Positions

Bessie Ellen

Ship's website: http://bessie-ellen.com/blog/

Last reported at 2018-Oct-29 20:42 UTC. Time now 2018-Dec-18 10:53 UTC.
Position N 48°40' W 005°08'.
Warning: this ship's position is 49 days out of date.

Length 28 m.

Type: Sailing vessel. MMSI: 235005952.

Date/timePositionNaut miles runAvg speedWind from/ knotsBaromVisibWave heightAir tempDewpointWater temp
2018-Oct-29 20:42N 48°40' W 005°08'2 5.9
2018-Oct-29 20:21N 48°38' W 005°09'2 6.1
2018-Oct-29 19:58N 48°35' W 005°09'13 6.6
2018-Oct-29 17:58N 48°22' W 005°08'7 6.9
2018-Oct-29 16:58N 48°17' W 005°02'7 6.6
2018-Oct-29 15:58N 48°12' W 004°56'6 6.0
2018-Oct-29 14:58N 48°06' W 004°52'7 6.7
2018-Oct-29 13:58N 48°01' W 004°46'  
2018-Oct-20 23:17N 42°07' W 009°04'57 5.2
2018-Oct-20 12:16N 41°12' W 008°45'1 6.6
2018-Oct-20 12:03N 41°11' W 008°44'0 7.1
2018-Oct-20 12:00N 41°10' W 008°44'  

Dump ship's entire track history